createdAt,value
2018-07-14T00:03:28.751Z,99.90
2018-07-14T00:08:24.014Z,99.90
2018-07-14T00:13:18.564Z,99.90
2018-07-14T00:18:13.122Z,99.90
2018-07-14T00:23:08.276Z,99.90
2018-07-14T00:37:51.538Z,99.90
2018-07-14T00:42:46.467Z,99.90
2018-07-14T00:47:41.114Z,99.90
2018-07-14T00:57:30.902Z,99.90
2018-07-14T01:02:25.622Z,99.90
2018-07-14T01:17:08.941Z,99.90
2018-07-14T01:22:03.466Z,99.90
2018-07-14T01:26:58.036Z,99.90
2018-07-14T01:31:52.577Z,99.90
2018-07-14T01:36:47.556Z,99.90
2018-07-14T01:41:42.465Z,99.90
2018-07-14T01:46:37.390Z,99.90
2018-07-14T01:51:31.869Z,99.90
2018-07-14T01:56:26.492Z,99.90
2018-07-14T02:01:21.327Z,99.90
2018-07-14T02:06:15.912Z,99.90
2018-07-14T02:11:10.559Z,99.90
2018-07-14T02:16:05.996Z,99.90
2018-07-14T02:21:00.471Z,99.90
2018-07-14T02:25:55.100Z,99.90
2018-07-14T02:30:49.601Z,99.90
2018-07-14T02:35:44.190Z,99.90
2018-07-14T02:40:38.664Z,99.90
2018-07-14T02:50:27.634Z,99.90
2018-07-14T02:55:23.269Z,99.90
2018-07-14T03:00:18.506Z,99.90
2018-07-14T03:05:13.257Z,99.90
2018-07-14T03:10:07.912Z,99.90
2018-07-14T03:15:02.449Z,99.90
2018-07-14T03:19:57.193Z,99.90
2018-07-14T03:24:51.658Z,99.90
2018-07-14T03:34:40.989Z,99.90
2018-07-14T03:39:35.575Z,99.90
2018-07-14T03:44:30.198Z,99.90
2018-07-14T03:49:24.804Z,99.90
2018-07-14T03:59:14.064Z,99.90
2018-07-14T04:04:08.628Z,99.90
2018-07-14T04:18:51.721Z,99.90
2018-07-14T04:23:46.268Z,99.90
2018-07-14T04:28:40.810Z,99.90
2018-07-14T04:33:35.460Z,99.90
2018-07-14T04:43:24.413Z,99.90
2018-07-14T04:48:19.084Z,99.90
2018-07-14T04:58:08.297Z,99.90
2018-07-14T05:07:57.224Z,99.90
2018-07-14T05:17:46.329Z,99.90
2018-07-14T05:27:35.203Z,99.90
2018-07-14T05:32:29.775Z,99.90
2018-07-14T05:37:24.495Z,99.90
2018-07-14T05:42:18.964Z,97.70
2018-07-14T05:47:13.470Z,94.30
2018-07-14T05:52:08.562Z,90.50
2018-07-14T05:57:04.156Z,80.50
2018-07-14T06:01:59.173Z,71.50
2018-07-14T06:16:44.000Z,53.70
2018-07-14T06:21:40.030Z,49.90
2018-07-14T06:31:31.438Z,45.00
2018-07-14T06:36:26.611Z,41.50
2018-07-14T06:41:24.040Z,39.30
2018-07-14T06:46:19.404Z,36.20
2018-07-14T06:51:14.769Z,34.00
2018-07-14T07:01:05.053Z,29.80
2018-07-14T07:06:00.671Z,28.40
2018-07-14T07:10:57.777Z,27.50
2018-07-14T07:15:53.008Z,27.00
2018-07-14T07:20:48.465Z,26.20
2018-07-14T07:30:39.095Z,24.40
2018-07-14T07:45:26.129Z,22.90
2018-07-14T07:50:20.920Z,22.50
2018-07-14T08:00:11.617Z,21.60
2018-07-14T08:05:06.867Z,21.00
2018-07-14T08:10:02.449Z,20.70
2018-07-14T08:14:58.097Z,20.10
2018-07-14T08:19:54.277Z,19.80
2018-07-14T08:24:49.808Z,19.40
2018-07-14T08:34:40.103Z,19.20
2018-07-14T08:44:30.049Z,19.00
2018-07-14T08:49:25.663Z,19.10
2018-07-14T08:54:21.285Z,19.10
2018-07-14T08:59:16.602Z,18.90
2018-07-14T09:04:11.724Z,18.30
2018-07-14T09:09:08.722Z,17.60
2018-07-14T09:14:03.500Z,17.60
2018-07-14T09:18:58.556Z,16.80
2018-07-14T09:23:53.992Z,16.30
2018-07-14T09:28:49.296Z,15.50
2018-07-14T09:33:45.437Z,15.90
2018-07-14T09:38:42.974Z,16.70
2018-07-14T09:43:38.509Z,16.50
2018-07-14T09:48:33.931Z,16.80
2018-07-14T09:53:29.663Z,17.50
2018-07-14T09:58:24.985Z,17.40
2018-07-14T10:03:21.451Z,19.00
2018-07-14T10:08:17.092Z,22.50
2018-07-14T10:13:12.107Z,25.20
2018-07-14T10:18:08.015Z,26.70
2018-07-14T10:23:04.484Z,28.20
2018-07-14T10:32:55.092Z,32.40
2018-07-14T10:37:50.290Z,34.10
2018-07-14T10:42:45.160Z,35.10
2018-07-14T10:47:40.161Z,36.10
2018-07-14T10:52:35.492Z,36.70
2018-07-14T10:57:30.618Z,38.40
2018-07-14T11:02:30.081Z,39.30
2018-07-14T11:07:28.184Z,39.70
2018-07-14T11:12:23.068Z,40.00
2018-07-14T11:17:17.970Z,40.30
2018-07-14T11:22:12.824Z,40.40
2018-07-14T11:27:07.649Z,42.40
2018-07-14T11:32:02.738Z,41.60
2018-07-14T11:36:57.898Z,41.90
2018-07-14T11:41:52.876Z,42.30
2018-07-14T11:46:47.660Z,42.40
2018-07-14T11:51:42.741Z,42.40
2018-07-14T11:56:37.476Z,42.80
2018-07-14T12:01:32.281Z,43.20
2018-07-14T12:06:28.122Z,43.40
2018-07-14T12:11:23.156Z,43.80
2018-07-14T12:16:17.900Z,44.20
2018-07-14T12:21:12.693Z,43.10
2018-07-14T12:40:51.883Z,42.60
2018-07-14T12:45:47.473Z,42.20
2018-07-14T12:50:43.236Z,42.10
2018-07-14T12:55:38.274Z,42.00
2018-07-14T13:00:34.025Z,41.60
2018-07-14T13:05:30.726Z,41.30
2018-07-14T13:15:21.856Z,41.10
2018-07-14T13:20:17.141Z,40.80
2018-07-14T13:25:12.189Z,41.10
2018-07-14T13:30:07.213Z,42.10
2018-07-14T13:35:02.726Z,42.60
2018-07-14T13:39:57.912Z,42.70
2018-07-14T13:44:55.052Z,43.00
2018-07-14T13:49:50.281Z,43.00
2018-07-14T13:54:45.229Z,42.40
2018-07-14T13:59:40.142Z,41.50
2018-07-14T14:04:36.250Z,40.90
2018-07-14T14:09:31.651Z,40.50
2018-07-14T14:14:27.362Z,39.80
2018-07-14T14:19:22.438Z,38.80
2018-07-14T14:29:12.792Z,39.30
2018-07-14T14:34:07.780Z,39.30
2018-07-14T14:39:02.629Z,39.00
2018-07-14T14:43:57.346Z,38.90
2018-07-14T14:48:52.164Z,38.90
2018-07-14T14:53:46.952Z,38.90
2018-07-14T14:58:41.719Z,38.80
2018-07-14T15:03:36.655Z,38.80
2018-07-14T15:08:32.036Z,39.30
2018-07-14T15:13:26.829Z,38.80
2018-07-14T15:23:16.396Z,38.00
2018-07-14T15:28:11.168Z,37.70
2018-07-14T15:38:02.023Z,37.50
2018-07-14T15:42:58.731Z,37.50
2018-07-14T15:47:54.730Z,36.40
2018-07-14T15:52:50.149Z,36.00
2018-07-14T16:02:40.189Z,34.80
2018-07-14T16:12:33.683Z,35.80
2018-07-14T16:17:28.650Z,35.70
2018-07-14T16:22:23.723Z,36.20
2018-07-14T16:27:19.246Z,36.10
2018-07-14T16:32:15.225Z,35.70
2018-07-14T16:37:10.081Z,36.30
2018-07-14T16:42:04.845Z,36.10
2018-07-14T16:46:59.951Z,36.60
2018-07-14T16:51:57.848Z,36.50
2018-07-14T16:56:52.793Z,37.10
2018-07-14T17:01:47.601Z,36.50
2018-07-14T17:06:42.400Z,37.20
2018-07-14T17:11:37.425Z,36.90
2018-07-14T17:16:32.380Z,36.80
2018-07-14T17:21:27.064Z,37.20
2018-07-14T17:26:22.167Z,37.90
2018-07-14T17:31:17.443Z,38.00
2018-07-14T17:36:12.089Z,38.30
2018-07-14T17:41:07.715Z,38.10
2018-07-14T17:46:02.542Z,38.80
2018-07-14T17:50:57.034Z,38.80
2018-07-14T17:55:51.638Z,38.70
2018-07-14T18:00:46.146Z,38.70
2018-07-14T18:05:40.702Z,39.30
2018-07-14T18:20:23.771Z,39.00
2018-07-14T18:25:18.432Z,38.80
2018-07-14T18:30:13.463Z,38.80
2018-07-14T18:35:07.936Z,39.10
2018-07-14T18:40:12.148Z,39.50
2018-07-14T18:45:06.909Z,39.90
2018-07-14T18:50:11.136Z,40.90
2018-07-14T19:05:09.410Z,42.10
2018-07-14T19:10:03.913Z,44.00
2018-07-14T19:14:58.764Z,46.20
2018-07-14T19:19:53.416Z,47.20
2018-07-14T19:29:42.170Z,49.50
2018-07-14T19:34:36.667Z,50.60
2018-07-14T19:39:31.243Z,51.70
2018-07-14T19:44:25.790Z,52.30
2018-07-14T19:49:20.331Z,52.90
2018-07-14T19:54:15.123Z,53.40
2018-07-14T19:59:09.606Z,53.60
2018-07-14T20:04:04.078Z,54.30
2018-07-14T20:08:58.579Z,54.80
2018-07-14T20:13:53.238Z,55.40
2018-07-14T20:18:47.898Z,56.10
2018-07-14T20:23:53.735Z,56.70
2018-07-14T20:28:58.361Z,57.70
2018-07-14T20:33:54.259Z,58.90
2018-07-14T20:38:49.408Z,59.00
2018-07-14T20:43:44.901Z,60.60
2018-07-14T20:48:39.605Z,61.20
2018-07-14T20:58:31.164Z,62.60
2018-07-14T21:03:27.991Z,63.50
2018-07-14T21:08:23.575Z,64.10
2018-07-14T21:18:12.938Z,65.80
2018-07-14T21:23:08.363Z,67.00
2018-07-14T21:28:02.818Z,67.80
2018-07-14T21:37:53.403Z,69.70
2018-07-14T21:42:48.768Z,70.90
2018-07-14T21:52:39.301Z,72.60
2018-07-14T21:57:35.039Z,73.30
2018-07-14T22:02:29.635Z,73.10
2018-07-14T22:07:24.632Z,73.70
2018-07-14T22:12:19.658Z,74.10
2018-07-14T22:17:15.002Z,74.30
2018-07-14T22:22:10.317Z,74.60
2018-07-14T22:27:05.643Z,75.90
2018-07-14T22:32:00.249Z,77.20
2018-07-14T22:36:55.387Z,77.80
2018-07-14T22:41:50.050Z,78.30
2018-07-14T22:46:45.565Z,79.30
2018-07-14T22:51:41.408Z,80.60
2018-07-14T22:56:36.707Z,81.70
2018-07-14T23:01:32.199Z,83.40
2018-07-14T23:06:26.773Z,84.70
2018-07-14T23:11:21.792Z,85.10
2018-07-14T23:16:16.893Z,86.40
2018-07-14T23:21:11.449Z,87.10
2018-07-14T23:26:06.140Z,88.80
2018-07-14T23:31:01.297Z,90.80
2018-07-14T23:35:58.090Z,91.00
2018-07-14T23:45:48.432Z,91.50
2018-07-14T23:55:40.177Z,92.40
